DAJAN EDDE-LIRA
Flight info
| Callsign | DAJAN |
|---|---|
| Flight time | 1h 23m |
| Altitude | 41000 |
| Route | NEVKO1C NEVKO Q244 TABAT M736 LIZUM N503 LIKDA DCT VESAL DCT DIPVO DCT NIKMA DCT GITOD |
| Aircraft | CL60/M-SBDE1E2E3FGHIJ1J4J5J7M3RWXYZ/LB1V1D1 |
Departure
| Time | 2026-04-29 14:59 |
|---|---|
| Airport | Erfurt-Weimar Airport (EDDE) |
Arrival
| Time | 2026-04-29 16:23 |
|---|---|
| Airport | Ciampino–G. B. Pastine International Airport (LIRA) |
| Time | Latitude | Longitude | Altitude | Speed | Heading |
|---|---|---|---|---|---|
| 2026-04-29 14:41 | 50.97586 | 10.96295 | 1037 ft | 0 kts | 277° |
| 2026-04-29 14:56 | 50.97588 | 10.96281 | 1037 ft | 3 kts | 277° |
| 2026-04-29 14:56 | 50.97605 | 10.96233 | 1037 ft | 7 kts | 2° |
| 2026-04-29 14:56 | 50.97669 | 10.96246 | 1037 ft | 10 kts | 9° |
| 2026-04-29 14:56 | 50.97735 | 10.96191 | 1037 ft | 13 kts | 282° |
| 2026-04-29 14:57 | 50.97751 | 10.96017 | 1037 ft | 18 kts | 277° |
| 2026-04-29 14:57 | 50.97768 | 10.95801 | 1037 ft | 21 kts | 277° |
| 2026-04-29 14:57 | 50.97788 | 10.95543 | 1036 ft | 25 kts | 277° |
| 2026-04-29 14:57 | 50.97813 | 10.95244 | 1036 ft | 28 kts | 277° |
| 2026-04-29 14:58 | 50.97851 | 10.94966 | 1035 ft | 22 kts | 326° |
| 2026-04-29 14:58 | 50.97988 | 10.94864 | 1036 ft | 19 kts | 337° |
| 2026-04-29 14:58 | 50.98054 | 10.94896 | 1036 ft | 8 kts | 95° |
| 2026-04-29 14:58 | 50.98051 | 10.94930 | 1036 ft | 11 kts | 97° |
| 2026-04-29 14:59 | 50.97995 | 10.95641 | 1038 ft | 118 kts | 97° |
| 2026-04-29 14:59 | 50.97852 | 10.97259 | 1478 ft | 166 kts | 93° |
| 2026-04-29 14:59 | 50.97607 | 10.99274 | 2118 ft | 211 kts | 96° |
| 2026-04-29 14:59 | 50.97327 | 11.01659 | 3353 ft | 230 kts | 97° |
| 2026-04-29 15:00 | 50.97068 | 11.04137 | 4809 ft | 240 kts | 96° |
| 2026-04-29 15:00 | 50.96807 | 11.06737 | 6274 ft | 251 kts | 96° |
| 2026-04-29 15:00 | 50.96533 | 11.09461 | 7781 ft | 258 kts | 96° |
| 2026-04-29 15:00 | 50.96253 | 11.12259 | 9182 ft | 268 kts | 95° |
| 2026-04-29 15:01 | 50.95961 | 11.15170 | 10555 ft | 277 kts | 95° |
| 2026-04-29 15:01 | 50.95661 | 11.18153 | 11966 ft | 283 kts | 94° |
| 2026-04-29 15:01 | 50.95172 | 11.21178 | 13301 ft | 294 kts | 108° |
| 2026-04-29 15:01 | 50.94060 | 11.23924 | 14489 ft | 312 kts | 128° |
| 2026-04-29 15:02 | 50.92181 | 11.26041 | 15189 ft | 346 kts | 149° |
| 2026-04-29 15:02 | 50.89953 | 11.27703 | 15947 ft | 365 kts | 151° |
| 2026-04-29 15:02 | 50.87616 | 11.29440 | 16951 ft | 374 kts | 150° |
| 2026-04-29 15:02 | 50.85271 | 11.31187 | 17925 ft | 381 kts | 150° |
| 2026-04-29 15:03 | 50.82855 | 11.32989 | 18918 ft | 387 kts | 150° |
| 2026-04-29 15:03 | 50.80426 | 11.34802 | 19889 ft | 392 kts | 150° |
| 2026-04-29 15:03 | 50.77924 | 11.36669 | 20832 ft | 397 kts | 150° |
| 2026-04-29 15:03 | 50.75441 | 11.38521 | 21748 ft | 402 kts | 150° |
| 2026-04-29 15:04 | 50.72892 | 11.40423 | 22623 ft | 407 kts | 150° |
| 2026-04-29 15:04 | 50.70340 | 11.42326 | 23445 ft | 411 kts | 149° |
| 2026-04-29 15:04 | 50.67730 | 11.44272 | 24220 ft | 417 kts | 149° |
| 2026-04-29 15:04 | 50.65113 | 11.46221 | 25010 ft | 422 kts | 149° |
| 2026-04-29 15:05 | 50.62450 | 11.48203 | 25766 ft | 426 kts | 149° |
| 2026-04-29 15:05 | 50.59774 | 11.50193 | 26473 ft | 431 kts | 149° |
| 2026-04-29 15:05 | 50.57027 | 11.52234 | 27169 ft | 435 kts | 150° |
| 2026-04-29 15:05 | 50.54233 | 11.54175 | 27849 ft | 439 kts | 152° |
| 2026-04-29 15:06 | 50.51356 | 11.56079 | 28470 ft | 443 kts | 152° |
| 2026-04-29 15:06 | 50.48437 | 11.58011 | 29053 ft | 447 kts | 152° |
| 2026-04-29 15:06 | 50.45491 | 11.59959 | 29539 ft | 453 kts | 152° |
| 2026-04-29 15:06 | 50.42580 | 11.61881 | 30081 ft | 456 kts | 152° |
| 2026-04-29 15:07 | 50.39616 | 11.63835 | 30616 ft | 459 kts | 152° |
| 2026-04-29 15:07 | 50.36660 | 11.65782 | 31069 ft | 462 kts | 153° |
| 2026-04-29 15:07 | 50.33648 | 11.67763 | 31461 ft | 466 kts | 153° |
| 2026-04-29 15:07 | 50.30635 | 11.69742 | 31841 ft | 469 kts | 154° |
| 2026-04-29 15:08 | 50.27616 | 11.71721 | 32293 ft | 469 kts | 154° |
| 2026-04-29 15:08 | 50.24588 | 11.73704 | 32810 ft | 468 kts | 154° |
| 2026-04-29 15:08 | 50.21617 | 11.75646 | 33312 ft | 465 kts | 154° |
| 2026-04-29 15:08 | 50.18606 | 11.77612 | 33796 ft | 464 kts | 154° |
| 2026-04-29 15:09 | 50.15626 | 11.79556 | 34228 ft | 463 kts | 154° |
| 2026-04-29 15:09 | 50.12659 | 11.81490 | 34599 ft | 463 kts | 154° |
| 2026-04-29 15:09 | 50.09702 | 11.83415 | 34950 ft | 463 kts | 154° |
| 2026-04-29 15:09 | 50.06747 | 11.85336 | 35223 ft | 464 kts | 155° |
| 2026-04-29 15:10 | 50.03770 | 11.87269 | 35526 ft | 464 kts | 155° |
| 2026-04-29 15:10 | 50.00788 | 11.89203 | 35820 ft | 464 kts | 155° |
| 2026-04-29 15:10 | 49.97795 | 11.91141 | 36137 ft | 464 kts | 156° |
| 2026-04-29 15:10 | 49.94811 | 11.93071 | 36493 ft | 465 kts | 156° |
| 2026-04-29 15:11 | 49.91857 | 11.94988 | 36821 ft | 466 kts | 156° |
| 2026-04-29 15:11 | 49.88862 | 11.96931 | 37125 ft | 467 kts | 156° |
| 2026-04-29 15:11 | 49.85867 | 11.98872 | 37438 ft | 467 kts | 157° |
| 2026-04-29 15:11 | 49.82814 | 12.00841 | 37738 ft | 468 kts | 157° |
| 2026-04-29 15:12 | 49.79801 | 12.02777 | 38046 ft | 468 kts | 157° |
| 2026-04-29 15:12 | 49.77790 | 12.04069 | 38243 ft | 467 kts | 157° |
| 2026-04-29 15:12 | 49.73828 | 12.06619 | 38612 ft | 468 kts | 156° |
| 2026-04-29 15:12 | 49.70926 | 12.08874 | 38866 ft | 467 kts | 148° |
| 2026-04-29 15:13 | 49.68241 | 12.11735 | 39118 ft | 466 kts | 141° |
| 2026-04-29 15:13 | 49.65690 | 12.14874 | 39347 ft | 467 kts | 140° |
| 2026-04-29 15:13 | 49.63181 | 12.17964 | 39574 ft | 466 kts | 140° |
| 2026-04-29 15:13 | 49.60652 | 12.21071 | 39799 ft | 466 kts | 140° |
| 2026-04-29 15:14 | 49.58115 | 12.24186 | 40001 ft | 466 kts | 140° |
| 2026-04-29 15:14 | 49.55584 | 12.27287 | 40184 ft | 467 kts | 140° |
| 2026-04-29 15:14 | 49.53041 | 12.30402 | 40381 ft | 467 kts | 140° |
| 2026-04-29 15:14 | 49.50513 | 12.33493 | 40600 ft | 466 kts | 140° |
| 2026-04-29 15:15 | 49.47966 | 12.36604 | 40788 ft | 465 kts | 140° |
| 2026-04-29 15:15 | 49.45432 | 12.39694 | 40934 ft | 466 kts | 140° |
| 2026-04-29 15:15 | 49.42897 | 12.42782 | 41080 ft | 466 kts | 140° |
| 2026-04-29 15:15 | 49.40362 | 12.45776 | 41229 ft | 466 kts | 144° |
| 2026-04-29 15:16 | 49.37605 | 12.48428 | 41253 ft | 470 kts | 151° |
| 2026-04-29 15:16 | 49.31514 | 12.52181 | 41239 ft | 476 kts | 166° |
| 2026-04-29 15:17 | 49.24973 | 12.53621 | 41246 ft | 478 kts | 180° |
| 2026-04-29 15:17 | 49.18314 | 12.53362 | 41230 ft | 482 kts | 184° |
| 2026-04-29 15:18 | 49.11557 | 12.53012 | 41227 ft | 486 kts | 184° |
| 2026-04-29 15:18 | 49.04787 | 12.52665 | 41225 ft | 491 kts | 184° |
| 2026-04-29 15:19 | 48.97960 | 12.52170 | 41230 ft | 495 kts | 185° |
| 2026-04-29 15:19 | 48.91007 | 12.51628 | 41222 ft | 502 kts | 185° |
| 2026-04-29 15:20 | 48.84010 | 12.51088 | 41218 ft | 506 kts | 185° |
| 2026-04-29 15:20 | 48.76927 | 12.50544 | 41203 ft | 508 kts | 185° |
| 2026-04-29 15:21 | 48.69918 | 12.50010 | 41211 ft | 507 kts | 185° |
| 2026-04-29 15:21 | 48.62875 | 12.49474 | 41204 ft | 506 kts | 185° |
| 2026-04-29 15:22 | 48.55823 | 12.48940 | 41206 ft | 506 kts | 185° |
| 2026-04-29 15:22 | 48.48917 | 12.47626 | 41204 ft | 501 kts | 196° |
| 2026-04-29 15:23 | 48.42405 | 12.44144 | 41192 ft | 494 kts | 209° |
| 2026-04-29 15:23 | 48.36623 | 12.38745 | 41192 ft | 487 kts | 221° |
| 2026-04-29 15:24 | 48.31457 | 12.32232 | 41198 ft | 486 kts | 224° |
| 2026-04-29 15:24 | 48.26323 | 12.25700 | 41193 ft | 485 kts | 224° |
| 2026-04-29 15:25 | 48.21153 | 12.19141 | 41182 ft | 485 kts | 224° |
| 2026-04-29 15:25 | 48.16033 | 12.12666 | 41194 ft | 485 kts | 224° |
| 2026-04-29 15:26 | 48.10887 | 12.06177 | 41191 ft | 484 kts | 224° |
| 2026-04-29 15:26 | 48.05732 | 11.99694 | 41170 ft | 484 kts | 224° |
| 2026-04-29 15:27 | 48.00570 | 11.93222 | 41182 ft | 483 kts | 224° |
| 2026-04-29 15:27 | 47.95285 | 11.87034 | 41151 ft | 487 kts | 217° |
| 2026-04-29 15:28 | 47.89244 | 11.82392 | 41165 ft | 493 kts | 205° |
| 2026-04-29 15:28 | 47.82592 | 11.79807 | 41187 ft | 499 kts | 191° |
| 2026-04-29 15:29 | 47.75665 | 11.79165 | 41175 ft | 503 kts | 185° |
| 2026-04-29 15:30 | 47.61703 | 11.78367 | 41181 ft | 501 kts | 186° |
| 2026-04-29 15:30 | 47.54751 | 11.77972 | 41157 ft | 500 kts | 186° |
| 2026-04-29 15:31 | 47.47780 | 11.77579 | 41170 ft | 500 kts | 186° |
| 2026-04-29 15:31 | 47.40822 | 11.77188 | 41152 ft | 500 kts | 186° |
| 2026-04-29 15:32 | 47.33897 | 11.76801 | 41131 ft | 499 kts | 186° |
| 2026-04-29 15:32 | 47.26965 | 11.76415 | 41119 ft | 498 kts | 186° |
| 2026-04-29 15:33 | 47.20019 | 11.76029 | 41121 ft | 498 kts | 186° |
| 2026-04-29 15:33 | 47.13097 | 11.75646 | 41125 ft | 497 kts | 186° |
| 2026-04-29 15:34 | 47.06199 | 11.75276 | 41120 ft | 497 kts | 186° |
| 2026-04-29 15:34 | 46.99286 | 11.74906 | 41119 ft | 496 kts | 186° |
| 2026-04-29 15:35 | 46.92417 | 11.74525 | 41134 ft | 494 kts | 186° |
| 2026-04-29 15:35 | 46.85668 | 11.74151 | 41148 ft | 495 kts | 186° |
| 2026-04-29 15:36 | 46.78725 | 11.73768 | 41171 ft | 495 kts | 186° |
| 2026-04-29 15:36 | 46.71832 | 11.73389 | 41167 ft | 495 kts | 186° |
| 2026-04-29 15:37 | 46.64970 | 11.73012 | 41149 ft | 495 kts | 186° |
| 2026-04-29 15:37 | 46.58115 | 11.72637 | 41122 ft | 495 kts | 186° |
| 2026-04-29 15:38 | 46.51248 | 11.72263 | 41124 ft | 494 kts | 187° |
| 2026-04-29 15:38 | 46.44340 | 11.71887 | 41113 ft | 494 kts | 187° |
| 2026-04-29 15:39 | 46.37475 | 11.71882 | 41108 ft | 499 kts | 178° |
| 2026-04-29 15:39 | 46.30586 | 11.73154 | 41111 ft | 500 kts | 176° |
| 2026-04-29 15:40 | 46.23687 | 11.74441 | 41109 ft | 500 kts | 177° |
| 2026-04-29 15:40 | 46.16803 | 11.75721 | 41101 ft | 500 kts | 176° |
| 2026-04-29 15:41 | 46.09890 | 11.77003 | 41072 ft | 501 kts | 177° |
| 2026-04-29 15:41 | 46.03000 | 11.78278 | 41100 ft | 499 kts | 176° |
| 2026-04-29 15:42 | 45.96098 | 11.79550 | 41083 ft | 500 kts | 177° |
| 2026-04-29 15:42 | 45.89912 | 11.80688 | 41093 ft | 499 kts | 177° |
| 2026-04-29 15:43 | 45.82845 | 11.81985 | 41101 ft | 500 kts | 177° |
| 2026-04-29 15:43 | 45.75922 | 11.83252 | 41095 ft | 499 kts | 177° |
| 2026-04-29 15:44 | 45.69069 | 11.84503 | 41097 ft | 498 kts | 176° |
| 2026-04-29 15:44 | 45.62212 | 11.85752 | 41095 ft | 498 kts | 177° |
| 2026-04-29 15:45 | 45.55323 | 11.87003 | 41092 ft | 498 kts | 177° |
| 2026-04-29 15:45 | 45.48473 | 11.88245 | 41089 ft | 496 kts | 177° |
| 2026-04-29 15:46 | 45.41641 | 11.89480 | 41090 ft | 496 kts | 177° |
| 2026-04-29 15:46 | 45.34756 | 11.90721 | 41092 ft | 496 kts | 177° |
| 2026-04-29 15:47 | 45.27960 | 11.91943 | 41085 ft | 496 kts | 177° |
| 2026-04-29 15:47 | 45.21085 | 11.93177 | 41086 ft | 494 kts | 177° |
| 2026-04-29 15:48 | 45.14243 | 11.94401 | 41081 ft | 494 kts | 177° |
| 2026-04-29 15:48 | 45.07433 | 11.95618 | 41075 ft | 493 kts | 177° |
| 2026-04-29 15:49 | 45.00633 | 11.96828 | 41072 ft | 493 kts | 177° |
| 2026-04-29 15:49 | 44.93820 | 11.98039 | 41068 ft | 493 kts | 177° |
| 2026-04-29 15:50 | 44.87238 | 11.99206 | 41072 ft | 493 kts | 177° |
| 2026-04-29 15:50 | 44.80445 | 12.00408 | 41061 ft | 491 kts | 177° |
| 2026-04-29 15:51 | 44.73666 | 12.01603 | 41047 ft | 491 kts | 177° |
| 2026-04-29 15:51 | 44.66904 | 12.02794 | 41064 ft | 490 kts | 177° |
| 2026-04-29 15:52 | 44.60154 | 12.03979 | 41035 ft | 490 kts | 177° |
| 2026-04-29 15:52 | 44.53420 | 12.05158 | 41035 ft | 490 kts | 177° |
| 2026-04-29 15:53 | 44.46644 | 12.06343 | 41043 ft | 489 kts | 177° |
| 2026-04-29 15:53 | 44.39903 | 12.07518 | 41044 ft | 488 kts | 177° |
| 2026-04-29 15:54 | 44.33149 | 12.08693 | 41034 ft | 487 kts | 177° |
| 2026-04-29 15:54 | 44.26391 | 12.09866 | 41034 ft | 487 kts | 177° |
| 2026-04-29 15:55 | 44.19676 | 12.11028 | 41045 ft | 487 kts | 177° |
| 2026-04-29 15:55 | 44.12974 | 12.12186 | 41008 ft | 487 kts | 177° |
| 2026-04-29 15:55 | 44.09610 | 12.12764 | 40633 ft | 488 kts | 177° |
| 2026-04-29 15:56 | 44.06261 | 12.13342 | 40194 ft | 484 kts | 177° |
| 2026-04-29 15:56 | 44.02947 | 12.13912 | 39519 ft | 481 kts | 177° |
| 2026-04-29 15:56 | 43.99751 | 12.14461 | 38874 ft | 475 kts | 177° |
| 2026-04-29 15:56 | 43.96509 | 12.15019 | 38280 ft | 469 kts | 177° |
| 2026-04-29 15:57 | 43.93227 | 12.15580 | 37709 ft | 471 kts | 177° |
| 2026-04-29 15:57 | 43.90015 | 12.16128 | 37165 ft | 473 kts | 177° |
| 2026-04-29 15:57 | 43.86752 | 12.16685 | 36639 ft | 474 kts | 177° |
| 2026-04-29 15:57 | 43.83478 | 12.17242 | 36198 ft | 475 kts | 176° |
| 2026-04-29 15:58 | 43.80204 | 12.17800 | 35725 ft | 476 kts | 176° |
| 2026-04-29 15:58 | 43.76917 | 12.18358 | 35188 ft | 477 kts | 176° |
| 2026-04-29 15:58 | 43.73622 | 12.18918 | 34650 ft | 478 kts | 176° |
| 2026-04-29 15:58 | 43.70319 | 12.19478 | 34071 ft | 478 kts | 176° |
| 2026-04-29 15:59 | 43.66994 | 12.20042 | 33540 ft | 480 kts | 176° |
| 2026-04-29 15:59 | 43.63697 | 12.20582 | 32995 ft | 480 kts | 178° |
| 2026-04-29 15:59 | 43.60347 | 12.20711 | 32438 ft | 479 kts | 185° |
| 2026-04-29 15:59 | 43.57008 | 12.20536 | 31887 ft | 480 kts | 185° |
| 2026-04-29 16:00 | 43.53677 | 12.20362 | 31333 ft | 480 kts | 185° |
| 2026-04-29 16:00 | 43.50352 | 12.20192 | 30788 ft | 476 kts | 185° |
| 2026-04-29 16:00 | 43.47060 | 12.20024 | 30238 ft | 473 kts | 185° |
| 2026-04-29 16:00 | 43.43805 | 12.19859 | 29700 ft | 469 kts | 185° |
| 2026-04-29 16:01 | 43.40558 | 12.19695 | 29162 ft | 465 kts | 185° |
| 2026-04-29 16:01 | 43.37299 | 12.19530 | 28624 ft | 462 kts | 185° |
| 2026-04-29 16:01 | 43.34106 | 12.19370 | 28099 ft | 458 kts | 185° |
| 2026-04-29 16:01 | 43.30941 | 12.19211 | 27573 ft | 455 kts | 185° |
| 2026-04-29 16:02 | 43.27784 | 12.19053 | 27051 ft | 451 kts | 185° |
| 2026-04-29 16:02 | 43.24685 | 12.18898 | 26539 ft | 448 kts | 185° |
| 2026-04-29 16:02 | 43.21600 | 12.18745 | 26021 ft | 444 kts | 185° |
| 2026-04-29 16:02 | 43.18501 | 12.18590 | 25507 ft | 440 kts | 185° |
| 2026-04-29 16:03 | 43.15480 | 12.18441 | 25004 ft | 433 kts | 185° |
| 2026-04-29 16:03 | 43.12516 | 12.18295 | 24508 ft | 425 kts | 185° |
| 2026-04-29 16:03 | 43.09541 | 12.18149 | 24015 ft | 418 kts | 185° |
| 2026-04-29 16:03 | 43.06657 | 12.18297 | 23552 ft | 413 kts | 174° |
| 2026-04-29 16:04 | 43.03913 | 12.19339 | 23066 ft | 411 kts | 163° |
| 2026-04-29 16:04 | 43.01253 | 12.20655 | 22586 ft | 403 kts | 162° |
| 2026-04-29 16:04 | 42.98622 | 12.21947 | 22123 ft | 395 kts | 163° |
| 2026-04-29 16:04 | 42.96077 | 12.23196 | 21685 ft | 389 kts | 163° |
| 2026-04-29 16:05 | 42.93541 | 12.24439 | 21235 ft | 381 kts | 163° |
| 2026-04-29 16:05 | 42.91066 | 12.25652 | 20797 ft | 374 kts | 163° |
| 2026-04-29 16:05 | 42.88663 | 12.26829 | 20384 ft | 367 kts | 163° |
| 2026-04-29 16:05 | 42.86263 | 12.28003 | 19953 ft | 359 kts | 163° |
| 2026-04-29 16:06 | 42.83937 | 12.29140 | 19551 ft | 352 kts | 163° |
| 2026-04-29 16:06 | 42.81649 | 12.30258 | 19151 ft | 346 kts | 163° |
| 2026-04-29 16:06 | 42.79418 | 12.31505 | 18736 ft | 345 kts | 154° |
| 2026-04-29 16:06 | 42.77358 | 12.33135 | 18355 ft | 343 kts | 152° |
| 2026-04-29 16:07 | 42.75307 | 12.34784 | 17972 ft | 342 kts | 152° |
| 2026-04-29 16:07 | 42.73946 | 12.35874 | 17696 ft | 341 kts | 152° |
| 2026-04-29 16:07 | 42.71249 | 12.38031 | 17183 ft | 337 kts | 152° |
| 2026-04-29 16:07 | 42.69227 | 12.39647 | 16812 ft | 335 kts | 152° |
| 2026-04-29 16:08 | 42.67222 | 12.41248 | 16399 ft | 332 kts | 152° |
| 2026-04-29 16:08 | 42.65252 | 12.42820 | 16032 ft | 329 kts | 152° |
| 2026-04-29 16:08 | 42.63270 | 12.44399 | 15648 ft | 327 kts | 152° |
| 2026-04-29 16:08 | 42.61312 | 12.45957 | 15290 ft | 325 kts | 152° |
| 2026-04-29 16:09 | 42.59390 | 12.47486 | 14928 ft | 323 kts | 152° |
| 2026-04-29 16:09 | 42.57451 | 12.49026 | 14534 ft | 320 kts | 152° |
| 2026-04-29 16:09 | 42.55528 | 12.50554 | 14173 ft | 318 kts | 152° |
| 2026-04-29 16:09 | 42.53646 | 12.52047 | 13821 ft | 315 kts | 152° |
| 2026-04-29 16:10 | 42.51750 | 12.53550 | 13458 ft | 313 kts | 152° |
| 2026-04-29 16:10 | 42.49867 | 12.55042 | 13107 ft | 311 kts | 152° |
| 2026-04-29 16:10 | 42.48015 | 12.56508 | 12764 ft | 310 kts | 152° |
| 2026-04-29 16:10 | 42.46141 | 12.57990 | 12379 ft | 307 kts | 152° |
| 2026-04-29 16:11 | 42.44318 | 12.59431 | 12054 ft | 304 kts | 152° |
| 2026-04-29 16:11 | 42.42473 | 12.60887 | 11702 ft | 303 kts | 152° |
| 2026-04-29 16:11 | 42.40637 | 12.62243 | 11349 ft | 298 kts | 160° |
| 2026-04-29 16:11 | 42.38627 | 12.62795 | 11006 ft | 290 kts | 182° |
| 2026-04-29 16:12 | 42.36648 | 12.62475 | 10654 ft | 286 kts | 192° |
| 2026-04-29 16:12 | 42.35352 | 12.62182 | 10423 ft | 284 kts | 191° |
| 2026-04-29 16:12 | 42.32772 | 12.61616 | 10007 ft | 277 kts | 191° |
| 2026-04-29 16:12 | 42.30893 | 12.61204 | 9690 ft | 272 kts | 191° |
| 2026-04-29 16:13 | 42.29030 | 12.60797 | 9353 ft | 266 kts | 191° |
| 2026-04-29 16:13 | 42.27237 | 12.60407 | 9103 ft | 259 kts | 191° |
| 2026-04-29 16:13 | 42.25442 | 12.60014 | 8785 ft | 256 kts | 191° |
| 2026-04-29 16:13 | 42.23750 | 12.59390 | 8492 ft | 252 kts | 201° |
| 2026-04-29 16:14 | 42.22118 | 12.58568 | 8192 ft | 251 kts | 201° |
| 2026-04-29 16:14 | 42.20467 | 12.57741 | 7895 ft | 252 kts | 201° |
| 2026-04-29 16:14 | 42.18825 | 12.56923 | 7607 ft | 249 kts | 201° |
| 2026-04-29 16:14 | 42.17220 | 12.56123 | 7333 ft | 245 kts | 201° |
| 2026-04-29 16:15 | 42.15618 | 12.55326 | 7043 ft | 242 kts | 201° |
| 2026-04-29 16:15 | 42.14061 | 12.54553 | 6715 ft | 238 kts | 200° |
| 2026-04-29 16:15 | 42.12552 | 12.53804 | 6452 ft | 225 kts | 200° |
| 2026-04-29 16:15 | 42.11083 | 12.53076 | 6197 ft | 226 kts | 200° |
| 2026-04-29 16:16 | 42.09597 | 12.52340 | 5929 ft | 225 kts | 200° |
| 2026-04-29 16:16 | 42.08125 | 12.51611 | 5680 ft | 223 kts | 200° |
| 2026-04-29 16:16 | 42.06675 | 12.50893 | 5518 ft | 225 kts | 200° |
| 2026-04-29 16:16 | 42.05199 | 12.50164 | 5268 ft | 223 kts | 200° |
| 2026-04-29 16:17 | 42.03745 | 12.49445 | 5001 ft | 223 kts | 200° |
| 2026-04-29 16:17 | 42.02285 | 12.48725 | 4741 ft | 221 kts | 200° |
| 2026-04-29 16:17 | 42.00859 | 12.48022 | 4490 ft | 215 kts | 200° |
| 2026-04-29 16:17 | 41.99495 | 12.47352 | 4253 ft | 200 kts | 200° |
| 2026-04-29 16:18 | 41.98171 | 12.47121 | 4023 ft | 189 kts | 175° |
| 2026-04-29 16:18 | 41.96943 | 12.47704 | 3803 ft | 189 kts | 155° |
| 2026-04-29 16:18 | 41.95763 | 12.48526 | 3544 ft | 191 kts | 154° |
| 2026-04-29 16:18 | 41.94595 | 12.49333 | 3276 ft | 188 kts | 154° |
| 2026-04-29 16:19 | 41.93424 | 12.50140 | 3032 ft | 188 kts | 154° |
| 2026-04-29 16:19 | 41.92260 | 12.50946 | 2791 ft | 187 kts | 154° |
| 2026-04-29 16:19 | 41.91105 | 12.51747 | 2551 ft | 186 kts | 154° |
| 2026-04-29 16:19 | 41.89983 | 12.52525 | 2317 ft | 186 kts | 154° |
| 2026-04-29 16:20 | 41.88811 | 12.53336 | 2073 ft | 185 kts | 154° |
| 2026-04-29 16:20 | 41.87672 | 12.54126 | 1807 ft | 183 kts | 154° |
| 2026-04-29 16:20 | 41.86607 | 12.54866 | 1622 ft | 159 kts | 154° |
| 2026-04-29 16:20 | 41.85689 | 12.55507 | 1440 ft | 138 kts | 154° |
| 2026-04-29 16:21 | 41.84886 | 12.56065 | 1265 ft | 125 kts | 155° |
| 2026-04-29 16:21 | 41.84113 | 12.56597 | 1111 ft | 125 kts | 155° |
| 2026-04-29 16:21 | 41.83344 | 12.57124 | 932 ft | 122 kts | 155° |
| 2026-04-29 16:21 | 41.82585 | 12.57646 | 806 ft | 123 kts | 155° |
| 2026-04-29 16:22 | 41.81817 | 12.58177 | 628 ft | 122 kts | 155° |
| 2026-04-29 16:22 | 41.81064 | 12.58702 | 479 ft | 122 kts | 155° |
| 2026-04-29 16:22 | 41.80327 | 12.59213 | 381 ft | 109 kts | 155° |
| 2026-04-29 16:22 | 41.79828 | 12.59558 | 405 ft | 50 kts | 153° |
| 2026-04-29 16:23 | 41.79651 | 12.59621 | 413 ft | 15 kts | 238° |
| 2026-04-29 16:23 | 41.79565 | 12.59526 | 412 ft | 18 kts | 189° |
| 2026-04-29 16:23 | 41.79468 | 12.59408 | 411 ft | 17 kts | 229° |
| 2026-04-29 16:23 | 41.79521 | 12.59283 | 406 ft | 18 kts | 321° |
| 2026-04-29 16:24 | 41.79613 | 12.59189 | 401 ft | 13 kts | 334° |
| 2026-04-29 16:24 | 41.79677 | 12.59174 | 399 ft | 4 kts | 323° |
| 2026-04-29 16:24 | 41.79680 | 12.59170 | 399 ft | 1 kts | 320° |
| 2026-04-29 16:24 | 41.79686 | 12.59163 | 399 ft | 0 kts | 321° |